Time;durP1;ratioP1;P1;durP2;ratioP2;P2;SDS_P1;SDS_P2;PMS_P1;PMS_P2;Temp;Humidity;BMP_temperature;BMP_pressure;BME280_temperature;BME280_humidity;BME280_pressure;Samples;Min_cycle;Max_cycle;Signal;HPM_P1;HPM_P2
2023/10/09 00:01:51;;;;;;;9.83;4.83;;;19.20;69.70;;;19.47;46.16;99281.06;5035931;27;123135;-86
2023/10/09 00:04:20;;;;;;;11.83;4.50;;;19.20;69.80;;;19.46;46.17;99276.66;5033230;27;124360;-85
2023/10/09 00:06:46;;;;;;;9.10;4.00;;;19.20;70.00;;;19.45;46.28;99277.78;5036167;27;119661;-87
2023/10/09 00:11:58;;;;;;;9.63;4.30;;;19.20;70.20;;;19.40;46.13;99276.91;5039719;27;124069;-85
2023/10/09 00:14:30;;;;;;;14.43;4.70;;;19.10;70.20;;;19.39;46.33;99280.88;5032650;27;123790;-86
2023/10/09 00:19:38;;;;;;;16.73;5.57;;;19.10;70.50;;;19.32;46.68;99280.69;5038414;27;120323;-85
2023/10/09 00:22:05;;;;;;;8.77;4.10;;;19.10;70.50;;;19.28;46.83;99282.56;5035299;27;124102;-85
2023/10/09 00:24:35;;;;;;;10.67;4.90;;;19.00;70.50;;;19.26;46.78;99282.09;5035163;27;125531;-85
2023/10/09 00:27:12;;;;;;;13.30;4.40;;;19.00;70.50;;;19.21;46.64;99285.19;5035174;27;120682;-88
2023/10/09 00:29:45;;;;;;;11.07;4.10;;;19.00;70.60;;;19.19;46.60;99284.72;5034119;27;120436;-87
2023/10/09 00:32:26;;;;;;;8.10;3.70;;;19.00;70.70;;;19.16;46.90;99277.06;5034688;27;123866;-86
2023/10/09 00:34:59;;;;;;;10.03;5.07;;;19.00;70.80;;;19.14;47.02;99268.19;5035383;27;123701;-86
2023/10/09 00:37:28;;;;;;;10.20;3.77;;;18.90;70.80;;;19.11;46.91;99268.91;5038530;27;119118;-87
2023/10/09 00:39:58;;;;;;;14.50;5.53;;;18.90;70.90;;;19.09;46.92;99274.84;5035218;27;118207;-87
2023/10/09 00:42:42;;;;;;;13.33;3.63;;;18.90;70.90;;;19.10;46.70;99267.25;5034066;27;124475;-87
2023/10/09 00:45:16;;;;;;;13.93;5.10;;;18.80;70.80;;;19.06;46.64;99267.16;5034592;27;123693;-87
2023/10/09 00:47:43;;;;;;;10.63;3.90;;;18.80;70.80;;;19.07;46.71;99267.97;5035251;27;119399;-88
2023/10/09 00:50:21;;;;;;;9.97;4.93;;;18.80;70.80;;;19.05;46.48;99262.75;5034053;27;119077;-88
2023/10/09 00:53:01;;;;;;;10.90;4.47;;;18.80;70.80;;;19.05;46.65;99253.50;5036899;27;124120;-87
2023/10/09 00:55:50;;;;;;;10.70;4.97;;;19.80;71.70;;;19.04;46.71;99251.91;5032319;27;123878;-87
2023/10/09 00:58:23;;;;;;;10.40;3.83;;;18.80;70.80;;;19.02;46.65;99251.44;5020748;27;119565;-87
2023/10/09 01:00:52;;;;;;;16.00;4.40;;;18.80;70.80;;;19.03;46.73;99250.28;5037250;27;119027;-87
2023/10/09 01:03:21;;;;;;;17.70;4.90;;;18.70;70.70;;;19.00;46.67;99251.81;5035645;27;124163;-87
2023/10/09 01:06:16;;;;;;;8.57;4.00;;;18.70;70.80;;;18.99;46.63;99247.34;5016807;27;123963;-87
2023/10/09 01:08:47;;;;;;;8.07;3.97;;;18.70;70.90;;;18.96;46.74;99251.69;5034958;27;118802;-86
2023/10/09 01:11:29;;;;;;;9.17;3.70;;;18.70;70.90;;;18.94;46.95;99242.84;5035864;27;117844;-86
2023/10/09 01:16:34;;;;;;;11.70;4.57;;;18.70;71.00;;;18.89;46.60;99234.72;5028752;27;126109;-86
2023/10/09 01:19:13;;;;;;;7.30;3.73;;;18.70;71.20;;;18.88;46.78;99243.44;5034462;27;120194;-87
2023/10/09 01:21:40;;;;;;;10.83;4.40;;;18.60;71.10;;;18.86;46.66;99241.03;5035307;27;119884;-87
2023/10/09 01:24:09;;;;;;;14.20;4.70;;;18.60;71.20;;;18.84;46.93;99229.38;5034941;27;124085;-87
2023/10/09 01:26:44;;;;;;;9.97;4.27;;;18.60;71.20;;;18.83;46.93;99236.13;5034466;27;123271;-87
2023/10/09 01:29:21;;;;;;;11.37;4.07;;;18.60;71.40;;;18.82;47.05;99230.88;5032798;27;119300;-86
2023/10/09 01:32:00;;;;;;;16.63;4.60;;;19.30;72.10;;;18.81;47.07;99232.88;5017865;27;118562;-87
2023/10/09 01:37:05;;;;;;;10.80;4.33;;;18.60;71.50;;;18.78;46.94;99228.00;5037678;27;124071;-87
2023/10/09 01:39:39;;;;;;;10.17;4.10;;;18.50;71.60;;;18.76;47.04;99222.75;5033482;27;119031;-88
2023/10/09 01:42:06;;;;;;;10.70;5.00;;;18.50;71.60;;;18.72;47.34;99230.19;5033837;27;119494;-87
2023/10/09 01:44:42;;;;;;;14.77;5.00;;;18.50;71.90;;;18.69;47.37;99224.50;5033621;27;123257;-87
2023/10/09 01:47:13;;;;;;;11.70;4.50;;;18.50;72.00;;;18.66;47.66;99226.03;5034417;27;123885;-87
2023/10/09 01:49:43;;;;;;;10.03;4.33;;;20.50;74.30;;;18.62;47.76;99221.47;5035093;27;119311;-87
2023/10/09 01:52:15;;;;;;;11.20;4.03;;;18.40;72.30;;;18.60;47.81;99215.44;5035416;27;118814;-87
2023/10/09 01:55:03;;;;;;;17.70;4.70;;;18.40;72.50;;;18.60;47.66;99215.44;5035014;27;124036;-89
2023/10/09 01:57:30;;;;;;;11.57;4.10;;;18.40;72.60;;;18.57;47.68;99210.56;5033000;27;123973;-86
2023/10/09 01:59:59;;;;;;;14.20;4.43;;;18.40;72.70;;;18.58;47.76;99206.59;5034816;27;118126;-87
2023/10/09 02:02:26;;;;;;;11.50;4.00;;;18.40;72.70;;;18.59;47.64;99211.00;5034957;27;119070;-87
2023/10/09 02:05:24;;;;;;;13.10;4.10;;;18.40;72.70;;;18.56;47.49;99206.94;5036260;27;124659;-87
2023/10/09 02:07:51;;;;;;;13.03;4.50;;;18.30;72.60;;;18.52;47.51;99204.03;5036517;27;123487;-87
2023/10/09 02:12:59;;;;;;;7.33;3.33;;;18.30;72.50;;;18.51;47.56;99202.41;5016906;27;124269;-87
2023/10/09 02:24:12;;;;;;;8.80;3.37;;;18.40;72.70;;;18.55;47.41;99191.31;5037997;27;119671;-86
2023/10/09 02:26:39;;;;;;;14.77;5.10;;;18.30;72.60;;;18.54;47.28;99195.31;5032192;27;124232;-86
2023/10/09 02:31:35;;;;;;;12.60;4.50;;;18.20;72.60;;;18.50;47.48;99189.59;5035539;27;119554;-87
2023/10/09 02:34:10;;;;;;;17.63;4.80;;;18.20;72.60;;;18.50;47.36;99189.59;5034856;27;119166;-87
2023/10/09 02:36:41;;;;;;;11.43;3.83;;;18.20;72.70;;;18.50;47.38;99188.78;5034464;27;124103;-88
2023/10/09 02:39:23;;;;;;;13.60;5.00;;;18.20;72.90;;;18.51;47.28;99196.81;5035020;27;123673;-88
2023/10/09 02:41:51;;;;;;;11.93;4.07;;;18.30;72.80;;;18.52;47.29;99198.44;5033261;27;119112;-87
2023/10/09 02:44:31;;;;;;;10.17;4.87;;;18.20;72.80;;;18.51;47.44;99196.81;5031923;27;119056;-87
2023/10/09 02:46:58;;;;;;;14.00;4.00;;;18.30;73.00;;;18.50;47.44;99195.19;5034755;27;124050;-87
2023/10/09 02:49:28;;;;;;;12.77;4.63;;;18.20;72.90;;;18.51;47.43;99190.38;5033001;27;123688;-87
2023/10/09 02:51:54;;;;;;;9.17;4.60;;;18.20;73.00;;;18.48;47.48;99186.34;5035062;27;119558;-87
2023/10/09 02:57:08;;;;;;;16.40;5.20;;;18.20;73.20;;;18.49;47.72;99187.97;5034655;27;125251;-87
2023/10/09 02:59:37;;;;;;;16.20;4.30;;;18.20;73.40;;;18.46;47.87;99202.66;5031736;27;125758;-85
2023/10/09 03:02:03;;;;;;;11.70;4.63;;;18.20;73.50;;;18.44;47.94;99179.81;5033347;27;121127;-87
2023/10/09 03:04:30;;;;;;;8.60;3.50;;;18.20;73.70;;;18.44;48.00;99185.41;5033879;27;119727;-87
2023/10/09 03:07:00;;;;;;;13.10;3.87;;;18.20;73.80;;;18.43;48.05;99186.59;5027520;27;124075;-87
2023/10/09 03:09:27;;;;;;;8.43;3.90;;;18.20;74.00;;;18.43;47.91;99186.59;5026621;27;124321;-87
2023/10/09 03:12:04;;;;;;;11.60;4.10;;;18.20;74.00;;;18.45;48.09;99178.63;5024832;27;119299;-87
2023/10/09 03:14:37;;;;;;;15.43;4.50;;;18.80;74.70;;;18.46;48.09;99174.69;5024204;28;119137;-88
2023/10/09 03:17:11;;;;;;;11.80;4.17;;;18.10;74.20;;;18.46;48.15;99174.69;5023358;27;124122;-87
2023/10/09 03:19:37;;;;;;;12.23;3.47;;;18.20;74.40;;;18.44;48.23;99165.84;5028188;27;123977;-86
2023/10/09 03:22:10;;;;;;;19.43;4.73;;;18.30;74.50;;;18.44;48.12;99165.03;5024565;27;119655;-87
2023/10/09 03:24:37;;;;;;;13.20;4.97;;;18.20;75.10;;;18.44;48.10;99165.03;5025284;28;118988;-88
2023/10/09 03:27:04;;;;;;;13.03;4.73;;;18.20;74.50;;;18.44;48.28;99171.44;5023668;28;124411;-87
2023/10/09 03:29:31;;;;;;;13.80;4.00;;;18.20;74.60;;;18.46;48.23;99160.69;5028858;27;123965;-87
2023/10/09 03:31:57;;;;;;;10.50;3.93;;;18.30;74.70;;;18.47;48.21;99155.91;5016129;28;118548;-87
2023/10/09 03:34:24;;;;;;;9.53;3.77;;;18.20;74.60;;;18.47;48.13;99155.91;5050971;27;119280;-87
2023/10/09 03:37:03;;;;;;;10.70;4.33;;;18.20;74.70;;;18.48;48.28;99160.31;5041943;27;123842;-87
2023/10/09 03:39:47;;;;;;;13.60;3.87;;;18.40;75.00;;;18.46;48.06;99152.31;5030360;28;124293;-88
2023/10/09 03:42:19;;;;;;;10.07;3.80;;;18.20;74.90;;;18.46;48.38;99160.69;5028261;27;118281;-87
2023/10/09 03:44:52;;;;;;;10.77;4.17;;;18.20;74.90;;;18.48;48.37;99161.16;5024304;27;119191;-88
2023/10/09 03:47:22;;;;;;;12.70;4.20;;;18.20;75.10;;;18.48;48.41;99163.97;5039572;27;124007;-85
2023/10/09 03:49:53;;;;;;;15.83;4.90;;;18.20;75.10;;;18.50;48.35;99161.59;5022284;27;122914;-85
2023/10/09 03:52:19;;;;;;;12.20;5.10;;;18.20;75.20;;;18.51;48.35;99163.25;5037016;27;121016;-85
2023/10/09 03:54:46;;;;;;;13.33;5.07;;;18.20;75.30;;;18.48;48.39;99163.97;5046109;27;119995;-85
2023/10/09 03:57:19;;;;;;;14.33;4.97;;;18.20;75.30;;;18.44;48.54;99163.03;5038357;27;124776;-87
2023/10/09 03:59:46;;;;;;;11.07;4.33;;;18.20;75.40;;;18.43;48.81;99161.41;5034648;27;124219;-87
2023/10/09 04:02:14;;;;;;;8.70;3.77;;;18.10;75.50;;;18.43;48.87;99164.22;5003503;28;119485;-85
2023/10/09 04:04:46;;;;;;;14.60;5.70;;;18.10;75.70;;;18.42;48.83;99156.16;5030657;27;118921;-88
2023/10/09 04:07:16;;;;;;;15.33;4.17;;;18.10;75.90;;;18.39;48.86;99160.47;5032166;27;124215;-88
2023/10/09 04:09:47;;;;;;;11.63;4.77;;;18.10;75.90;;;18.40;48.75;99155.69;5012626;27;124855;-88
2023/10/09 04:12:20;;;;;;;10.87;3.97;;;18.10;75.90;;;18.41;48.85;99162.94;5034007;27;118630;-87
2023/10/09 04:21:08;;;;;;;10.10;4.67;;;18.10;76.10;;;18.40;49.00;99161.28;5033674;27;123423;-86
2023/10/09 04:22:50;;;;;;;13.53;4.23;;;18.10;76.20;;;18.38;49.01;99163.66;5036330;27;118357;-85
2023/10/09 04:25:28;;;;;;;15.03;5.87;;;18.10;76.30;;;18.37;49.10;99154.44;5044541;27;119451;-86
2023/10/09 04:28:18;;;;;;;12.27;4.80;;;18.10;76.60;;;18.37;49.25;99150.81;5031456;27;124132;-86
2023/10/09 04:30:55;;;;;;;11.03;3.80;;;18.10;76.60;;;18.33;49.46;99156.31;5033998;27;123767;-86
2023/10/09 04:44:18;;;;;;;13.07;4.40;;;18.00;77.30;;;18.16;49.76;99163.03;5029764;27;120335;-85
2023/10/09 04:55:16;;;;;;;15.17;4.57;;;17.90;77.80;;;18.06;50.10;99164.34;5030747;27;119803;-85
2023/10/09 04:58:13;;;;;;;8.60;3.63;;;17.90;77.90;;;18.07;49.89;99160.34;5013914;27;118901;-85
2023/10/09 05:03:13;;;;;;;13.00;4.97;;;17.90;78.20;;;18.09;49.94;99155.22;5028518;27;124398;-87
2023/10/09 05:08:19;;;;;;;14.37;4.80;;;17.80;78.30;;;18.11;50.16;99166.06;5026705;27;119302;-85
2023/10/09 05:16:18;;;;;;;13.73;3.97;;;17.90;78.60;;;18.02;50.23;99170.97;5033207;27;119975;-85
2023/10/09 05:18:56;;;;;;;11.23;4.70;;;17.80;78.60;;;18.01;50.32;99172.16;5022164;27;119241;-85
2023/10/09 05:21:44;;;;;;;12.20;4.20;;;17.70;78.70;;;17.97;50.38;99165.63;5012299;27;124615;-85
2023/10/09 05:29:19;;;;;;;11.67;5.30;;;17.70;79.40;;;18.03;50.76;99170.63;5009679;28;119791;-86
2023/10/09 05:35:07;;;;;;;8.40;4.40;;;17.80;79.80;;;18.06;50.59;99178.31;5028231;27;124477;-87
2023/10/09 05:37:33;;;;;;;12.17;4.87;;;17.80;79.80;;;18.09;50.51;99183.19;5024245;27;119942;-87
2023/10/09 05:42:44;;;;;;;11.97;4.97;;;17.80;79.90;;;18.18;50.53;99179.44;5042378;27;123792;-86
2023/10/09 05:46:15;;;;;;;18.03;4.53;;;17.80;80.00;;;18.21;50.40;99175.94;5010830;28;122808;-87
2023/10/09 06:04:19;;;;;;;13.70;4.63;;;17.90;79.90;;;18.30;49.99;99179.41;5037613;27;124589;-84
2023/10/09 06:06:46;;;;;;;12.77;5.03;;;17.90;79.90;;;18.30;50.03;99180.22;5036570;27;123787;-86
2023/10/09 06:11:49;;;;;;;10.10;4.60;;;17.80;79.80;;;18.36;50.04;99179.97;5014092;27;119307;-86
2023/10/09 06:17:01;;;;;;;13.60;5.13;;;18.00;80.30;;;18.34;50.06;99185.91;5036068;27;123394;-89
2023/10/09 06:19:28;;;;;;;17.77;5.60;;;18.00;80.50;;;18.25;50.42;99194.47;5041741;27;118288;-87
2023/10/09 06:24:41;;;;;;;13.07;5.33;;;17.90;80.90;;;18.17;50.86;99194.59;5029623;27;124769;-88
2023/10/09 06:35:21;;;;;;;10.93;4.53;;;17.80;80.90;;;18.21;50.55;99204.72;5011818;28;124890;-86
2023/10/09 06:43:26;;;;;;;12.33;5.13;;;18.70;81.70;;;18.31;50.43;99206.22;5022056;27;119413;-86
2023/10/09 06:45:58;;;;;;;14.67;5.70;;;17.90;81.10;;;18.31;50.31;99206.22;5042725;27;123829;-88
2023/10/09 06:59:14;;;;;;;12.63;5.00;;;18.00;81.00;;;18.40;50.13;99212.47;5011289;28;124138;-87
2023/10/09 07:01:51;;;;;;;16.63;5.20;;;18.00;80.90;;;18.44;50.04;99209.78;4980958;28;118529;-87
2023/10/09 07:04:45;;;;;;;13.17;6.23;;;18.00;80.80;;;18.47;50.05;99211.88;5024025;27;119068;-85
2023/10/09 07:07:16;;;;;;;21.50;6.73;;;18.10;80.90;;;18.50;50.08;99209.16;5025122;27;124530;-88
2023/10/09 07:09:42;;;;;;;14.97;6.20;;;18.10;80.90;;;18.54;50.33;99206.50;5043153;27;122538;-86
2023/10/09 07:12:14;;;;;;;13.80;5.27;;;18.20;80.80;;;18.57;49.68;99211.38;5006242;27;118793;-87
2023/10/09 07:22:29;;;;;;;9.00;3.83;;;18.20;80.70;;;18.68;49.63;99200.47;5024285;27;120644;-87
2023/10/09 07:25:14;;;;;;;12.13;4.83;;;18.30;80.90;;;18.71;49.75;99199.75;4993471;28;119656;-88
2023/10/09 07:33:05;;;;;;;15.60;5.60;;;18.40;81.00;;;18.73;49.66;99203.03;5016709;28;119816;-87
2023/10/09 07:36:30;;;;;;;17.50;6.80;;;18.30;80.80;;;18.74;49.57;99199.88;5015166;27;119789;-87
2023/10/09 07:38:23;;;;;;;10.40;5.07;;;18.40;80.70;;;18.75;49.69;99198.72;5025895;27;124340;-87
2023/10/09 07:43:38;;;;;;;16.13;5.20;;;18.40;80.70;;;18.76;49.84;99202.34;5019273;28;119511;-89
2023/10/09 07:49:09;;;;;;;19.80;6.77;;;18.40;80.90;;;18.80;49.79;99208.03;5012071;28;124623;-88
2023/10/09 07:51:43;;;;;;;18.33;5.40;;;18.40;81.00;;;18.81;49.68;99210.47;5006820;28;124115;-88
2023/10/09 07:54:14;;;;;;;19.13;5.70;;;18.50;81.10;;;18.88;49.62;99215.44;4981097;27;119785;-88
2023/10/09 07:56:43;;;;;;;14.53;5.17;;;18.50;81.10;;;18.93;49.94;99207.59;5026233;27;118179;-88
2023/10/09 07:59:17;;;;;;;13.40;5.27;;;18.50;81.30;;;18.97;49.97;99207.72;4994084;28;123100;-88
2023/10/09 08:01:54;;;;;;;15.83;5.77;;;18.60;81.40;;;19.01;49.81;99203.00;5001168;28;124440;-87
2023/10/09 08:04:39;;;;;;;16.10;6.10;;;19.70;82.50;;;19.08;49.76;99219.22;5015831;27;119121;-87
2023/10/09 08:07:09;;;;;;;13.23;5.70;;;18.60;81.40;;;19.08;49.76;99227.63;5024342;27;119059;-87
2023/10/09 08:09:48;;;;;;;12.13;4.60;;;18.60;81.30;;;19.12;49.61;99220.09;5031624;27;124101;-87
2023/10/09 08:17:48;;;;;;;15.20;5.33;;;18.80;81.10;;;19.27;49.24;99224.91;5030771;27;120569;-87
2023/10/09 08:20:17;;;;;;;12.33;5.10;;;18.80;80.90;;;19.32;49.30;99224.66;5008934;28;124160;-86
2023/10/09 08:22:50;;;;;;;33.73;7.00;;;18.90;81.00;;;19.39;49.10;99230.41;5025816;27;124807;-86
2023/10/09 08:31:03;;;;;;;17.93;6.50;;;18.20;79.90;;;19.56;49.02;99225.66;5023853;27;125101;-86
2023/10/09 08:36:14;;;;;;;15.20;5.73;;;19.10;80.50;;;19.70;48.26;99220.44;5018187;27;120284;-85
2023/10/09 08:38:41;;;;;;;19.10;6.07;;;19.20;80.40;;;19.77;48.45;99222.56;5028876;27;118906;-85
2023/10/09 08:41:22;;;;;;;27.07;6.70;;;19.30;80.40;;;19.83;48.31;99221.13;5029405;27;123429;-84
2023/10/09 08:43:53;;;;;;;19.87;5.90;;;19.30;80.30;;;19.89;48.08;99214.06;5006801;27;124399;-84
2023/10/09 08:46:27;;;;;;;16.73;6.33;;;19.40;80.20;;;19.93;47.95;99214.13;4991060;28;119536;-86
2023/10/09 08:49:05;;;;;;;16.57;6.80;;;19.40;80.00;;;19.99;47.83;99210.69;5042722;27;118479;-83
2023/10/09 08:51:35;;;;;;;19.40;6.83;;;19.50;79.90;;;20.04;47.99;99221.63;5047240;27;124149;-84
2023/10/09 08:54:11;;;;;;;13.83;5.90;;;19.60;79.70;;;20.09;47.53;99214.91;5025096;27;122996;-84
2023/10/09 08:56:39;;;;;;;21.50;5.87;;;19.60;79.60;;;20.13;47.49;99218.63;4997013;27;119275;-85
2023/10/09 08:59:06;;;;;;;19.03;5.80;;;19.60;79.40;;;20.17;47.96;99213.09;5020396;28;119381;-84
2023/10/09 09:01:40;;;;;;;15.80;6.20;;;19.70;79.70;;;20.20;47.61;99227.22;5040675;27;124079;-84
2023/10/09 09:04:08;;;;;;;25.20;6.53;;;19.70;79.60;;;20.24;47.48;99219.66;5034052;27;124698;-83
2023/10/09 09:06:41;;;;;;;27.27;6.50;;;19.80;79.60;;;20.28;47.50;99226.19;5037962;27;120383;-84
2023/10/09 09:09:15;;;;;;;25.73;6.47;;;19.80;79.50;;;20.33;47.55;99227.06;5025270;27;120744;-85
2023/10/09 09:11:48;;;;;;;22.37;6.00;;;19.80;79.50;;;20.38;47.42;99238.81;5035219;27;124610;-83
2023/10/09 09:14:24;;;;;;;21.73;7.43;;;21.50;81.10;;;20.44;47.27;99230.91;5026638;27;124049;-83
2023/10/09 09:16:52;;;;;;;19.67;6.80;;;19.90;79.60;;;20.49;47.49;99227.81;5030039;27;119828;-83
2023/10/09 09:19:18;;;;;;;28.90;6.27;;;20.10;79.70;;;20.51;47.24;99236.69;5026363;27;119540;-83
2023/10/09 09:21:59;;;;;;;23.70;6.80;;;20.00;79.50;;;20.54;47.34;99240.78;5012087;28;123831;-83
2023/10/09 09:27:09;;;;;;;14.07;5.30;;;20.10;79.60;;;20.64;47.65;99260.66;4994409;28;118583;-85
2023/10/09 09:29:41;;;;;;;14.87;5.60;;;20.10;79.60;;;20.70;47.56;99253.56;5007198;28;118289;-83
2023/10/09 09:34:46;;;;;;;29.23;6.97;;;20.30;79.50;;;20.81;47.21;99253.78;5028965;28;123725;-83
2023/10/09 09:37:20;;;;;;;21.50;5.50;;;20.30;79.40;;;20.86;46.83;99255.50;5037278;27;119331;-83
2023/10/09 09:39:51;;;;;;;22.07;6.60;;;20.40;79.30;;;20.90;46.92;99250.75;5022318;27;119620;-82
2023/10/09 09:42:25;;;;;;;17.70;5.80;;;20.40;79.00;;;20.91;46.73;99238.34;5026582;27;124109;-85
2023/10/09 09:44:55;;;;;;;30.17;6.47;;;20.50;79.00;;;20.95;46.84;99253.25;5039829;27;124892;-84
2023/10/09 09:47:26;;;;;;;15.83;5.70;;;20.40;78.70;;;20.97;46.81;99250.91;5018130;27;118848;-83
2023/10/09 09:50:00;;;;;;;17.30;6.40;;;20.50;78.60;;;21.03;46.60;99248.59;5027030;27;118078;-84
2023/10/09 09:52:37;;;;;;;19.03;5.30;;;20.60;78.50;;;21.08;46.31;99248.28;5008687;28;123958;-84
2023/10/09 09:55:14;;;;;;;13.43;5.33;;;20.60;78.30;;;21.13;46.60;99248.81;5011195;27;122892;-84
2023/10/09 09:57:51;;;;;;;13.13;4.90;;;20.70;78.20;;;21.20;45.96;99242.50;4998512;28;120217;-85
2023/10/09 10:00:30;;;;;;;16.20;5.10;;;20.70;78.00;;;21.28;46.13;99249.06;5008557;27;119979;-85
2023/10/09 10:03:07;;;;;;;16.50;5.27;;;20.80;77.80;;;21.35;46.08;99247.19;5025245;27;124311;-85
2023/10/09 10:05:40;;;;;;;15.77;5.10;;;20.90;77.80;;;21.44;45.93;99241.38;5040993;27;124277;-84
2023/10/09 10:08:12;;;;;;;12.73;5.73;;;20.90;77.80;;;21.51;45.64;99243.50;5010469;27;118979;-85
2023/10/09 10:10:52;;;;;;;22.77;6.53;;;21.00;77.60;;;21.57;45.68;99245.63;5021828;28;119242;-84
2023/10/09 10:13:41;;;;;;;13.80;5.20;;;21.00;77.50;;;21.64;45.59;99244.13;5025663;27;124651;-84
2023/10/09 10:16:13;;;;;;;19.83;5.77;;;21.20;77.40;;;21.72;45.46;99237.41;5036235;27;124239;-84
2023/10/09 10:21:49;;;;;;;11.03;4.70;;;21.30;77.10;;;21.89;44.80;99242.50;5019945;27;119658;-84
2023/10/09 10:27:23;;;;;;;14.37;4.97;;;21.40;76.80;;;22.05;45.10;99234.72;5028336;27;124370;-84
2023/10/09 10:30:11;;;;;;;15.13;6.03;;;21.50;76.90;;;22.14;44.86;99233.63;5036521;27;119512;-84
2023/10/09 10:33:09;;;;;;;21.73;6.00;;;21.60;76.70;;;22.21;44.61;99230.97;5029821;27;119220;-84
2023/10/09 10:38:32;;;;;;;22.93;6.13;;;21.70;76.20;;;22.34;44.00;99232.34;5018808;27;123685;-84
2023/10/09 10:41:12;;;;;;;22.50;6.40;;;21.80;75.80;;;22.39;44.09;99223.56;5022859;27;119308;-84
2023/10/09 10:46:30;;;;;;;30.33;6.50;;;21.90;75.40;;;22.51;43.62;99214.06;5025619;27;124715;-84
2023/10/09 10:49:15;;;;;;;23.57;6.00;;;23.50;76.60;;;22.55;43.66;99203.66;5028014;27;124812;-85
2023/10/09 10:51:48;;;;;;;26.70;7.30;;;22.00;74.80;;;22.57;43.04;99212.56;4974807;28;119567;-84
2023/10/09 10:57:00;;;;;;;23.30;5.87;;;22.10;73.30;;;22.64;42.88;99217.44;5029477;27;124590;-84
2023/10/09 10:59:42;;;;;;;18.70;6.47;;;22.20;73.80;;;22.68;43.09;99218.31;5022607;27;124566;-84
2023/10/09 11:07:14;;;;;;;15.40;4.77;;;22.30;73.10;;;22.83;42.71;99213.66;5028564;27;124423;-85
2023/10/09 11:15:44;;;;;;;18.30;5.40;;;22.50;73.10;;;23.03;42.70;99217.16;5017046;27;119703;-82
2023/10/09 11:18:26;;;;;;;27.00;7.40;;;22.60;73.10;;;23.10;42.61;99228.47;5011130;28;124208;-83
2023/10/09 11:26:25;;;;;;;22.53;7.07;;;22.70;73.20;;;23.28;42.88;99225.84;5015156;27;119238;-83
2023/10/09 11:32:05;;;;;;;16.97;5.67;;;22.80;73.60;;;23.40;42.57;99221.91;4999258;27;125496;-83
2023/10/09 11:34:35;;;;;;;18.83;5.70;;;22.90;73.40;;;23.45;42.49;99225.19;5015133;27;119794;-84
2023/10/09 11:37:39;;;;;;;26.57;7.27;;;23.00;74.10;;;23.50;42.68;99218.41;5031071;27;118545;-83
2023/10/09 11:40:21;;;;;;;26.60;7.10;;;23.00;73.30;;;23.54;42.50;99211.59;5022646;27;124932;-83
2023/10/09 11:42:49;;;;;;;20.10;7.40;;;23.10;73.20;;;23.57;42.17;99208.00;5027960;27;124009;-84
2023/10/09 11:45:31;;;;;;;24.47;7.30;;;23.10;72.80;;;23.59;42.18;99208.41;5020710;27;119740;-84
2023/10/09 11:48:21;;;;;;;16.83;5.53;;;23.20;72.70;;;23.60;41.82;99197.94;5004865;28;120422;-84
2023/10/09 11:55:52;;;;;;;13.60;5.83;;;23.20;71.80;;;23.69;41.96;99200.41;5012804;28;119539;-85
2023/10/09 11:58:23;;;;;;;23.33;5.90;;;23.30;71.90;;;23.72;41.84;99202.47;5027155;27;119696;-84
2023/10/09 12:00:57;;;;;;;19.03;5.67;;;23.30;72.50;;;23.73;41.69;99196.47;5024065;27;123761;-83
2023/10/09 12:03:30;;;;;;;21.73;5.83;;;23.30;71.60;;;23.71;41.85;99190.38;5024310;27;123792;-83
2023/10/09 12:06:04;;;;;;;25.67;6.77;;;23.30;71.50;;;23.71;41.90;99190.38;5038530;27;119333;-84
2023/10/09 12:08:34;;;;;;;27.73;7.57;;;23.30;71.70;;;23.72;42.05;99182.72;5010119;28;117987;-85
2023/10/09 12:11:08;;;;;;;23.63;6.43;;;23.30;71.60;;;23.74;41.75;99174.69;5007973;28;123982;-83
2023/10/09 12:13:34;;;;;;;33.97;6.73;;;23.40;71.40;;;23.75;41.42;99168.66;5037772;27;123741;-85
2023/10/09 12:16:01;;;;;;;14.27;5.37;;;23.40;71.10;;;23.79;41.39;99163.84;5007903;28;119399;-84
2023/10/09 12:18:28;;;;;;;20.43;5.83;;;23.40;71.10;;;23.84;41.51;99170.34;5012139;28;117925;-86
2023/10/09 12:21:02;;;;;;;10.77;4.67;;;23.40;71.00;;;23.88;41.43;99157.84;5009196;28;123953;-86
2023/10/09 12:23:35;;;;;;;18.07;6.63;;;23.50;71.20;;;23.95;41.33;99159.91;5021826;27;123913;-86
2023/10/09 12:26:03;;;;;;;20.40;5.17;;;23.50;71.20;;;24.01;41.44;99158.34;5008002;28;119468;-86
2023/10/09 12:28:32;;;;;;;17.77;6.20;;;23.60;71.20;;;24.08;41.32;99157.59;5007238;28;118971;-84
2023/10/09 12:31:04;;;;;;;20.10;4.73;;;23.60;70.90;;;24.14;41.08;99144.69;5007927;28;124591;-84
2023/10/09 12:33:30;;;;;;;18.20;5.50;;;23.60;70.60;;;24.24;40.79;99144.75;5007918;28;124267;-84
2023/10/09 12:36:00;;;;;;;27.40;6.20;;;23.70;70.20;;;24.34;40.24;99128.25;5023401;27;119744;-85
2023/10/09 12:38:31;;;;;;;18.33;5.70;;;23.80;70.20;;;24.46;40.39;99113.81;5008130;28;119316;-82
2023/10/09 12:41:13;;;;;;;32.87;6.00;;;23.90;70.10;;;24.59;39.55;99114.25;5037394;27;124490;-83
2023/10/09 12:43:42;;;;;;;17.27;5.80;;;24.00;69.40;;;24.68;39.88;99126.78;5005629;28;123617;-82
2023/10/09 12:46:16;;;;;;;8.87;4.50;;;24.00;69.20;;;24.77;39.25;99126.41;5004529;28;119611;-84
2023/10/09 12:48:48;;;;;;;18.77;6.10;;;24.10;68.80;;;24.86;39.53;99123.19;5005937;28;119286;-84
2023/10/09 12:51:16;;;;;;;17.70;5.47;;;24.20;68.70;;;24.96;39.42;99122.41;4994965;28;124407;-84
2023/10/09 12:53:45;;;;;;;14.20;5.30;;;24.30;68.70;;;25.05;39.02;99125.63;5009787;28;123762;-84
2023/10/09 12:56:18;;;;;;;14.47;5.70;;;24.40;68.50;;;25.14;38.50;99128.06;5011465;28;119633;-85
2023/10/09 12:58:52;;;;;;;10.83;4.77;;;24.50;67.90;;;25.21;37.67;99127.31;5030939;27;119399;-84
2023/10/09 13:01:20;;;;;;;18.93;6.10;;;24.60;66.90;;;25.25;37.34;99140.22;5004725;28;124509;-82
2023/10/09 13:03:51;;;;;;;11.97;4.47;;;24.70;65.80;;;25.31;37.52;99137.81;5008990;28;123676;-83
2023/10/09 13:06:26;;;;;;;11.77;4.70;;;24.70;65.50;;;25.33;37.12;99141.03;5006544;28;118618;-84
2023/10/09 13:08:53;;;;;;;16.73;5.37;;;24.80;64.50;;;25.38;36.77;99132.13;5023838;27;119519;-83
2023/10/09 13:11:19;;;;;;;15.53;5.43;;;24.90;64.30;;;25.44;35.91;99133.38;5024131;27;123989;-84
2023/10/09 13:13:47;;;;;;;18.13;5.87;;;24.90;62.70;;;25.53;34.27;99125.28;5001758;28;123470;-84
2023/10/09 13:16:23;;;;;;;11.83;4.20;;;25.00;60.60;;;25.64;32.43;99127.28;5034734;27;119492;-84
2023/10/09 13:18:56;;;;;;;21.73;6.60;;;25.10;58.10;;;25.74;28.70;99118.78;5005465;28;119092;-85
2023/10/09 13:21:31;;;;;;;11.37;6.00;;;25.10;51.70;;;25.88;27.14;99117.16;5014968;27;124341;-83
2023/10/09 13:24:00;;;;;;;12.17;5.40;;;25.20;47.60;;;26.02;26.63;99113.47;5007666;28;124181;-85
2023/10/09 13:26:34;;;;;;;14.47;5.60;;;25.40;48.00;;;26.20;26.17;99109.38;5037682;27;120674;-84
2023/10/09 13:29:03;;;;;;;10.83;5.87;;;25.50;46.80;;;26.43;25.70;99094.69;5006119;28;120219;-84
2023/10/09 13:31:33;;;;;;;19.77;6.40;;;25.70;45.80;;;26.67;24.76;99095.00;5006557;28;124948;-85
2023/10/09 13:34:01;;;;;;;10.53;5.63;;;25.90;44.00;;;26.90;24.00;99088.78;5020362;27;123992;-83
2023/10/09 13:36:33;;;;;;;14.57;6.50;;;26.00;42.60;;;27.13;22.90;99081.72;5006716;28;119543;-83
2023/10/09 13:39:22;;;;;;;14.17;6.77;;;26.30;40.90;;;27.30;21.04;99089.31;5006669;28;119357;-83
2023/10/09 13:41:58;;;;;;;14.27;6.30;;;26.50;36.70;;;27.49;19.32;99091.56;5008669;28;123294;-84
2023/10/09 13:44:29;;;;;;;15.27;6.27;;;26.70;33.80;;;27.67;19.13;99099.06;5007561;28;124131;-84
2023/10/09 13:46:57;;;;;;;10.30;5.50;;;26.90;33.00;;;27.84;18.32;99086.78;5022917;27;119334;-86
2023/10/09 13:49:29;;;;;;;9.90;5.80;;;27.10;31.60;;;28.01;18.58;99082.09;5003805;28;119077;-85
2023/10/09 13:52:01;;;;;;;11.00;6.30;;;27.30;31.80;;;28.20;17.89;99077.81;5004277;28;123247;-86